sensor_id;sensor_type;location;lat;lon;timestamp;P1;durP1;ratioP1;P2;durP2;ratioP2
11269;SDS011;5692;48.956;9.200;2023-05-09T00:01:40;181.65;;;172.95;;
11269;SDS011;5692;48.956;9.200;2023-05-09T00:04:07;199.45;;;189.90;;
11269;SDS011;5692;48.956;9.200;2023-05-09T00:06:33;189.13;;;180.07;;
11269;SDS011;5692;48.956;9.200;2023-05-09T00:08:59;191.40;;;182.23;;
11269;SDS011;5692;48.956;9.200;2023-05-09T00:11:25;194.05;;;184.77;;
11269;SDS011;5692;48.956;9.200;2023-05-09T00:13:51;195.13;;;185.82;;
11269;SDS011;5692;48.956;9.200;2023-05-09T00:16:17;185.20;;;176.33;;
11269;SDS011;5692;48.956;9.200;2023-05-09T00:18:44;195.63;;;186.25;;
11269;SDS011;5692;48.956;9.200;2023-05-09T00:21:11;193.32;;;184.05;;
11269;SDS011;5692;48.956;9.200;2023-05-09T00:23:37;184.03;;;175.20;;
11269;SDS011;5692;48.956;9.200;2023-05-09T00:26:03;197.27;;;187.82;;
11269;SDS011;5692;48.956;9.200;2023-05-09T00:28:29;206.30;;;196.43;;
11269;SDS011;5692;48.956;9.200;2023-05-09T00:30:56;206.13;;;196.23;;
11269;SDS011;5692;48.956;9.200;2023-05-09T00:33:22;208.95;;;198.95;;
11269;SDS011;5692;48.956;9.200;2023-05-09T00:35:51;195.30;;;185.95;;
11269;SDS011;5692;48.956;9.200;2023-05-09T00:38:17;191.90;;;182.70;;
11269;SDS011;5692;48.956;9.200;2023-05-09T00:40:43;199.40;;;189.85;;
11269;SDS011;5692;48.956;9.200;2023-05-09T00:43:09;197.45;;;188.00;;
11269;SDS011;5692;48.956;9.200;2023-05-09T00:45:35;195.18;;;185.85;;
11269;SDS011;5692;48.956;9.200;2023-05-09T00:48:01;184.55;;;175.70;;
11269;SDS011;5692;48.956;9.200;2023-05-09T00:50:27;192.07;;;182.88;;
11269;SDS011;5692;48.956;9.200;2023-05-09T00:52:53;185.27;;;176.38;;
11269;SDS011;5692;48.956;9.200;2023-05-09T00:55:20;191.18;;;182.02;;
11269;SDS011;5692;48.956;9.200;2023-05-09T00:57:46;192.82;;;183.63;;
11269;SDS011;5692;48.956;9.200;2023-05-09T01:00:12;192.88;;;183.65;;
11269;SDS011;5692;48.956;9.200;2023-05-09T01:02:42;183.68;;;174.88;;
11269;SDS011;5692;48.956;9.200;2023-05-09T01:05:08;186.73;;;177.80;;
11269;SDS011;5692;48.956;9.200;2023-05-09T01:10:22;185.98;;;177.07;;
11269;SDS011;5692;48.956;9.200;2023-05-09T01:20:29;181.27;;;172.60;;
11269;SDS011;5692;48.956;9.200;2023-05-09T01:25:53;183.55;;;174.75;;
11269;SDS011;5692;48.956;9.200;2023-05-09T01:31:05;179.65;;;171.05;;
11269;SDS011;5692;48.956;9.200;2023-05-09T01:33:35;179.70;;;171.10;;
11269;SDS011;5692;48.956;9.200;2023-05-09T01:36:07;179.40;;;170.80;;
11269;SDS011;5692;48.956;9.200;2023-05-09T01:38:34;176.63;;;168.18;;
11269;SDS011;5692;48.956;9.200;2023-05-09T01:41:02;182.70;;;173.95;;
11269;SDS011;5692;48.956;9.200;2023-05-09T01:43:29;170.30;;;162.15;;
11269;SDS011;5692;48.956;9.200;2023-05-09T01:45:57;169.85;;;161.70;;
11269;SDS011;5692;48.956;9.200;2023-05-09T01:48:24;177.05;;;168.57;;
11269;SDS011;5692;48.956;9.200;2023-05-09T01:50:51;166.90;;;158.90;;
11269;SDS011;5692;48.956;9.200;2023-05-09T01:53:18;162.52;;;154.73;;
11269;SDS011;5692;48.956;9.200;2023-05-09T01:55:44;159.02;;;151.43;;
11269;SDS011;5692;48.956;9.200;2023-05-09T01:58:11;166.98;;;158.98;;
11269;SDS011;5692;48.956;9.200;2023-05-09T02:00:38;155.77;;;148.30;;
11269;SDS011;5692;48.956;9.200;2023-05-09T02:03:04;146.05;;;139.05;;
11269;SDS011;5692;48.956;9.200;2023-05-09T02:05:31;149.60;;;142.40;;
11269;SDS011;5692;48.956;9.200;2023-05-09T02:07:57;157.40;;;149.88;;
11269;SDS011;5692;48.956;9.200;2023-05-09T02:10:24;165.20;;;157.30;;
11269;SDS011;5692;48.956;9.200;2023-05-09T02:12:51;153.80;;;146.40;;
11269;SDS011;5692;48.956;9.200;2023-05-09T02:15:17;158.23;;;150.63;;
11269;SDS011;5692;48.956;9.200;2023-05-09T02:17:43;156.40;;;148.90;;
11269;SDS011;5692;48.956;9.200;2023-05-09T02:20:10;166.10;;;158.15;;
11269;SDS011;5692;48.956;9.200;2023-05-09T02:22:37;160.63;;;152.93;;
11269;SDS011;5692;48.956;9.200;2023-05-09T02:25:04;161.30;;;153.60;;
11269;SDS011;5692;48.956;9.200;2023-05-09T02:27:31;157.20;;;149.68;;
11269;SDS011;5692;48.956;9.200;2023-05-09T02:29:58;164.90;;;157.00;;
11269;SDS011;5692;48.956;9.200;2023-05-09T02:32:28;169.98;;;161.85;;
11269;SDS011;5692;48.956;9.200;2023-05-09T02:34:54;166.13;;;158.15;;
11269;SDS011;5692;48.956;9.200;2023-05-09T02:37:21;162.18;;;154.38;;
11269;SDS011;5692;48.956;9.200;2023-05-09T02:39:47;159.40;;;151.75;;
11269;SDS011;5692;48.956;9.200;2023-05-09T02:42:14;159.50;;;151.85;;
11269;SDS011;5692;48.956;9.200;2023-05-09T02:44:40;161.90;;;154.15;;
11269;SDS011;5692;48.956;9.200;2023-05-09T02:47:06;162.80;;;155.00;;
11269;SDS011;5692;48.956;9.200;2023-05-09T02:49:32;175.32;;;166.93;;
11269;SDS011;5692;48.956;9.200;2023-05-09T02:51:59;166.10;;;158.13;;
11269;SDS011;5692;48.956;9.200;2023-05-09T02:54:25;167.93;;;159.88;;
11269;SDS011;5692;48.956;9.200;2023-05-09T02:56:51;166.57;;;158.57;;
11269;SDS011;5692;48.956;9.200;2023-05-09T02:59:17;156.90;;;149.37;;
11269;SDS011;5692;48.956;9.200;2023-05-09T03:01:44;150.55;;;143.35;;
11269;SDS011;5692;48.956;9.200;2023-05-09T03:04:10;164.50;;;156.60;;
11269;SDS011;5692;48.956;9.200;2023-05-09T03:06:36;158.00;;;150.40;;
11269;SDS011;5692;48.956;9.200;2023-05-09T03:09:02;153.23;;;145.90;;
11269;SDS011;5692;48.956;9.200;2023-05-09T03:11:29;164.63;;;156.73;;
11269;SDS011;5692;48.956;9.200;2023-05-09T03:13:55;157.23;;;149.73;;
11269;SDS011;5692;48.956;9.200;2023-05-09T03:16:21;151.70;;;144.43;;
11269;SDS011;5692;48.956;9.200;2023-05-09T03:18:47;145.70;;;138.70;;
11269;SDS011;5692;48.956;9.200;2023-05-09T03:21:13;155.57;;;148.07;;
11269;SDS011;5692;48.956;9.200;2023-05-09T03:23:39;157.02;;;149.52;;
11269;SDS011;5692;48.956;9.200;2023-05-09T03:26:05;153.50;;;146.15;;
11269;SDS011;5692;48.956;9.200;2023-05-09T03:28:31;144.32;;;137.43;;
11269;SDS011;5692;48.956;9.200;2023-05-09T03:30:57;155.13;;;147.70;;
11269;SDS011;5692;48.956;9.200;2023-05-09T03:33:24;155.50;;;148.05;;
11269;SDS011;5692;48.956;9.200;2023-05-09T03:35:50;152.50;;;145.18;;
11269;SDS011;5692;48.956;9.200;2023-05-09T03:38:16;157.13;;;149.60;;
11269;SDS011;5692;48.956;9.200;2023-05-09T03:40:42;158.85;;;151.25;;
11269;SDS011;5692;48.956;9.200;2023-05-09T03:43:08;160.30;;;152.60;;
11269;SDS011;5692;48.956;9.200;2023-05-09T03:45:34;163.93;;;156.07;;
11269;SDS011;5692;48.956;9.200;2023-05-09T03:48:00;169.63;;;161.53;;
11269;SDS011;5692;48.956;9.200;2023-05-09T03:50:29;154.55;;;147.15;;
11269;SDS011;5692;48.956;9.200;2023-05-09T03:52:55;146.40;;;139.40;;
11269;SDS011;5692;48.956;9.200;2023-05-09T03:55:21;153.50;;;146.13;;
11269;SDS011;5692;48.956;9.200;2023-05-09T03:57:48;154.45;;;147.05;;
11269;SDS011;5692;48.956;9.200;2023-05-09T04:00:14;135.13;;;128.63;;
11269;SDS011;5692;48.956;9.200;2023-05-09T04:02:40;156.68;;;149.18;;
11269;SDS011;5692;48.956;9.200;2023-05-09T04:05:07;172.65;;;164.35;;
11269;SDS011;5692;48.956;9.200;2023-05-09T04:07:33;159.00;;;151.40;;
11269;SDS011;5692;48.956;9.200;2023-05-09T04:09:59;161.57;;;153.85;;
11269;SDS011;5692;48.956;9.200;2023-05-09T04:12:25;163.95;;;156.07;;
11269;SDS011;5692;48.956;9.200;2023-05-09T04:14:51;158.00;;;150.40;;
11269;SDS011;5692;48.956;9.200;2023-05-09T04:17:17;154.05;;;146.65;;
11269;SDS011;5692;48.956;9.200;2023-05-09T04:19:43;154.75;;;147.35;;
11269;SDS011;5692;48.956;9.200;2023-05-09T04:22:09;151.93;;;144.63;;
11269;SDS011;5692;48.956;9.200;2023-05-09T04:24:35;150.40;;;143.18;;
11269;SDS011;5692;48.956;9.200;2023-05-09T04:27:01;160.88;;;153.18;;
11269;SDS011;5692;48.956;9.200;2023-05-09T04:29:27;162.25;;;154.45;;
11269;SDS011;5692;48.956;9.200;2023-05-09T04:31:53;161.02;;;153.32;;
11269;SDS011;5692;48.956;9.200;2023-05-09T04:34:19;160.63;;;152.93;;
11269;SDS011;5692;48.956;9.200;2023-05-09T04:36:45;158.15;;;150.55;;
11269;SDS011;5692;48.956;9.200;2023-05-09T04:39:11;143.20;;;136.32;;
11269;SDS011;5692;48.956;9.200;2023-05-09T04:41:37;154.68;;;147.27;;
11269;SDS011;5692;48.956;9.200;2023-05-09T04:44:03;163.23;;;155.43;;
11269;SDS011;5692;48.956;9.200;2023-05-09T04:46:30;157.95;;;150.35;;
11269;SDS011;5692;48.956;9.200;2023-05-09T04:48:56;152.82;;;145.50;;
11269;SDS011;5692;48.956;9.200;2023-05-09T04:51:22;165.82;;;157.88;;
11269;SDS011;5692;48.956;9.200;2023-05-09T04:53:48;162.93;;;155.10;;
11269;SDS011;5692;48.956;9.200;2023-05-09T04:56:14;163.07;;;155.27;;
11269;SDS011;5692;48.956;9.200;2023-05-09T04:58:40;154.20;;;146.80;;
11269;SDS011;5692;48.956;9.200;2023-05-09T05:01:06;167.70;;;159.70;;
11269;SDS011;5692;48.956;9.200;2023-05-09T05:03:32;161.97;;;154.17;;
11269;SDS011;5692;48.956;9.200;2023-05-09T05:05:58;175.60;;;167.20;;
11269;SDS011;5692;48.956;9.200;2023-05-09T05:08:24;166.77;;;158.77;;
11269;SDS011;5692;48.956;9.200;2023-05-09T05:10:50;156.80;;;149.30;;
11269;SDS011;5692;48.956;9.200;2023-05-09T05:13:16;159.60;;;151.95;;
11269;SDS011;5692;48.956;9.200;2023-05-09T05:15:42;161.18;;;153.45;;
11269;SDS011;5692;48.956;9.200;2023-05-09T05:18:08;169.57;;;161.45;;
11269;SDS011;5692;48.956;9.200;2023-05-09T05:20:41;164.00;;;156.15;;
11269;SDS011;5692;48.956;9.200;2023-05-09T05:23:07;173.98;;;165.65;;
11269;SDS011;5692;48.956;9.200;2023-05-09T05:25:33;169.48;;;161.38;;
11269;SDS011;5692;48.956;9.200;2023-05-09T05:27:59;157.68;;;150.13;;
11269;SDS011;5692;48.956;9.200;2023-05-09T05:30:25;169.80;;;161.70;;
11269;SDS011;5692;48.956;9.200;2023-05-09T05:32:51;153.50;;;146.13;;
11269;SDS011;5692;48.956;9.200;2023-05-09T05:35:17;164.18;;;156.30;;
11269;SDS011;5692;48.956;9.200;2023-05-09T05:37:46;156.50;;;149.00;;
11269;SDS011;5692;48.956;9.200;2023-05-09T05:40:12;160.82;;;153.13;;
11269;SDS011;5692;48.956;9.200;2023-05-09T05:42:38;163.00;;;155.17;;
11269;SDS011;5692;48.956;9.200;2023-05-09T05:45:04;160.77;;;153.07;;
11269;SDS011;5692;48.956;9.200;2023-05-09T05:47:31;181.32;;;172.63;;
11269;SDS011;5692;48.956;9.200;2023-05-09T05:49:57;177.65;;;169.15;;
11269;SDS011;5692;48.956;9.200;2023-05-09T05:52:23;168.23;;;160.18;;
11269;SDS011;5692;48.956;9.200;2023-05-09T05:54:51;180.23;;;171.57;;
11269;SDS011;5692;48.956;9.200;2023-05-09T05:57:17;173.57;;;165.27;;
11269;SDS011;5692;48.956;9.200;2023-05-09T05:59:43;177.45;;;168.95;;
11269;SDS011;5692;48.956;9.200;2023-05-09T06:02:09;188.87;;;179.87;;
11269;SDS011;5692;48.956;9.200;2023-05-09T06:04:38;187.95;;;178.95;;
11269;SDS011;5692;48.956;9.200;2023-05-09T06:07:04;203.32;;;193.60;;
11269;SDS011;5692;48.956;9.200;2023-05-09T06:09:31;198.07;;;188.60;;
11269;SDS011;5692;48.956;9.200;2023-05-09T06:11:57;209.88;;;199.82;;
11269;SDS011;5692;48.956;9.200;2023-05-09T06:14:23;209.63;;;199.60;;
11269;SDS011;5692;48.956;9.200;2023-05-09T06:16:49;210.05;;;200.00;;
11269;SDS011;5692;48.956;9.200;2023-05-09T06:19:15;205.68;;;195.85;;
11269;SDS011;5692;48.956;9.200;2023-05-09T06:21:41;211.65;;;201.52;;
11269;SDS011;5692;48.956;9.200;2023-05-09T06:24:07;208.00;;;198.05;;
11269;SDS011;5692;48.956;9.200;2023-05-09T06:26:34;206.38;;;196.50;;
11269;SDS011;5692;48.956;9.200;2023-05-09T06:29:00;206.27;;;196.40;;
11269;SDS011;5692;48.956;9.200;2023-05-09T06:31:26;216.18;;;205.85;;
11269;SDS011;5692;48.956;9.200;2023-05-09T06:33:52;226.27;;;215.47;;
11269;SDS011;5692;48.956;9.200;2023-05-09T06:36:18;219.67;;;209.17;;
11269;SDS011;5692;48.956;9.200;2023-05-09T06:38:44;213.73;;;203.50;;
11269;SDS011;5692;48.956;9.200;2023-05-09T06:41:10;222.35;;;211.73;;
11269;SDS011;5692;48.956;9.200;2023-05-09T06:43:36;222.77;;;212.07;;
11269;SDS011;5692;48.956;9.200;2023-05-09T06:46:02;218.05;;;207.60;;
11269;SDS011;5692;48.956;9.200;2023-05-09T06:48:28;204.32;;;194.57;;
11269;SDS011;5692;48.956;9.200;2023-05-09T06:50:54;209.33;;;199.33;;
11269;SDS011;5692;48.956;9.200;2023-05-09T06:53:20;210.13;;;200.10;;
11269;SDS011;5692;48.956;9.200;2023-05-09T06:55:46;202.45;;;192.75;;
11269;SDS011;5692;48.956;9.200;2023-05-09T06:58:13;209.95;;;199.90;;
11269;SDS011;5692;48.956;9.200;2023-05-09T07:00:40;221.45;;;210.85;;
11269;SDS011;5692;48.956;9.200;2023-05-09T07:03:15;202.45;;;192.75;;
11269;SDS011;5692;48.956;9.200;2023-05-09T07:05:44;210.90;;;200.80;;
11269;SDS011;5692;48.956;9.200;2023-05-09T07:08:10;202.45;;;192.75;;
11269;SDS011;5692;48.956;9.200;2023-05-09T07:10:36;203.50;;;193.80;;
11269;SDS011;5692;48.956;9.200;2023-05-09T07:13:05;205.93;;;196.02;;
11269;SDS011;5692;48.956;9.200;2023-05-09T07:15:31;215.80;;;205.50;;
11269;SDS011;5692;48.956;9.200;2023-05-09T07:17:57;208.88;;;198.88;;
11269;SDS011;5692;48.956;9.200;2023-05-09T07:20:23;201.60;;;191.95;;
11269;SDS011;5692;48.956;9.200;2023-05-09T07:22:49;213.65;;;203.43;;
11269;SDS011;5692;48.956;9.200;2023-05-09T07:25:15;188.23;;;179.23;;
11269;SDS011;5692;48.956;9.200;2023-05-09T07:27:41;200.38;;;190.77;;
11269;SDS011;5692;48.956;9.200;2023-05-09T07:30:07;207.77;;;197.82;;
11269;SDS011;5692;48.956;9.200;2023-05-09T07:32:34;198.52;;;189.02;;
11269;SDS011;5692;48.956;9.200;2023-05-09T07:35:00;213.02;;;202.82;;
11269;SDS011;5692;48.956;9.200;2023-05-09T07:37:29;207.38;;;197.48;;
11269;SDS011;5692;48.956;9.200;2023-05-09T07:39:56;199.05;;;189.52;;
11269;SDS011;5692;48.956;9.200;2023-05-09T07:42:22;206.38;;;196.48;;
11269;SDS011;5692;48.956;9.200;2023-05-09T07:44:48;214.27;;;204.03;;
11269;SDS011;5692;48.956;9.200;2023-05-09T07:47:14;216.10;;;205.77;;
11269;SDS011;5692;48.956;9.200;2023-05-09T07:49:40;212.65;;;202.45;;
11269;SDS011;5692;48.956;9.200;2023-05-09T07:52:07;205.15;;;195.35;;
11269;SDS011;5692;48.956;9.200;2023-05-09T07:54:33;213.38;;;203.15;;
11269;SDS011;5692;48.956;9.200;2023-05-09T07:56:59;209.23;;;199.20;;
11269;SDS011;5692;48.956;9.200;2023-05-09T07:59:25;212.90;;;202.70;;
11269;SDS011;5692;48.956;9.200;2023-05-09T08:01:51;218.27;;;207.82;;
11269;SDS011;5692;48.956;9.200;2023-05-09T08:04:17;228.35;;;217.45;;
11269;SDS011;5692;48.956;9.200;2023-05-09T08:06:43;215.00;;;204.70;;
11269;SDS011;5692;48.956;9.200;2023-05-09T08:09:09;216.47;;;206.10;;
11269;SDS011;5692;48.956;9.200;2023-05-09T08:11:35;202.77;;;193.07;;
11269;SDS011;5692;48.956;9.200;2023-05-09T08:14:01;187.25;;;178.30;;
11269;SDS011;5692;48.956;9.200;2023-05-09T08:16:27;210.82;;;200.73;;
11269;SDS011;5692;48.956;9.200;2023-05-09T08:18:56;201.93;;;192.23;;
11269;SDS011;5692;48.956;9.200;2023-05-09T08:21:22;220.43;;;209.90;;
11269;SDS011;5692;48.956;9.200;2023-05-09T08:23:48;223.27;;;212.57;;
11269;SDS011;5692;48.956;9.200;2023-05-09T08:26:14;212.27;;;202.13;;
11269;SDS011;5692;48.956;9.200;2023-05-09T08:28:40;210.37;;;200.30;;
11269;SDS011;5692;48.956;9.200;2023-05-09T08:31:06;207.07;;;197.15;;
11269;SDS011;5692;48.956;9.200;2023-05-09T08:33:32;216.03;;;205.73;;
11269;SDS011;5692;48.956;9.200;2023-05-09T08:35:58;210.57;;;200.50;;
11269;SDS011;5692;48.956;9.200;2023-05-09T08:38:24;223.85;;;213.15;;
11269;SDS011;5692;48.956;9.200;2023-05-09T08:40:50;205.93;;;196.05;;
11269;SDS011;5692;48.956;9.200;2023-05-09T08:43:16;209.02;;;199.02;;
11269;SDS011;5692;48.956;9.200;2023-05-09T08:45:51;210.60;;;200.52;;
11269;SDS011;5692;48.956;9.200;2023-05-09T08:48:19;223.40;;;212.70;;
11269;SDS011;5692;48.956;9.200;2023-05-09T08:50:48;217.15;;;206.75;;
11269;SDS011;5692;48.956;9.200;2023-05-09T08:53:14;214.50;;;204.25;;
11269;SDS011;5692;48.956;9.200;2023-05-09T08:55:40;213.90;;;203.68;;
11269;SDS011;5692;48.956;9.200;2023-05-09T08:58:09;207.68;;;197.73;;
11269;SDS011;5692;48.956;9.200;2023-05-09T09:00:36;214.90;;;204.63;;
11269;SDS011;5692;48.956;9.200;2023-05-09T09:03:03;224.38;;;213.65;;
11269;SDS011;5692;48.956;9.200;2023-05-09T09:05:32;227.35;;;216.45;;
11269;SDS011;5692;48.956;9.200;2023-05-09T09:08:01;235.88;;;224.57;;
11269;SDS011;5692;48.956;9.200;2023-05-09T09:10:28;237.07;;;225.75;;
11269;SDS011;5692;48.956;9.200;2023-05-09T09:12:59;225.10;;;214.32;;
11269;SDS011;5692;48.956;9.200;2023-05-09T09:15:27;216.82;;;206.43;;
11269;SDS011;5692;48.956;9.200;2023-05-09T09:17:53;232.68;;;221.55;;
11269;SDS011;5692;48.956;9.200;2023-05-09T09:20:22;227.98;;;217.07;;
11269;SDS011;5692;48.956;9.200;2023-05-09T09:22:50;231.40;;;220.32;;
11269;SDS011;5692;48.956;9.200;2023-05-09T09:25:17;219.95;;;209.45;;
11269;SDS011;5692;48.956;9.200;2023-05-09T09:27:43;234.43;;;223.23;;
11269;SDS011;5692;48.956;9.200;2023-05-09T09:30:09;235.30;;;224.03;;
11269;SDS011;5692;48.956;9.200;2023-05-09T09:32:36;226.98;;;216.13;;
11269;SDS011;5692;48.956;9.200;2023-05-09T09:35:04;236.65;;;225.35;;
11269;SDS011;5692;48.956;9.200;2023-05-09T09:37:32;214.27;;;204.02;;
11269;SDS011;5692;48.956;9.200;2023-05-09T09:39:58;207.10;;;197.20;;
11269;SDS011;5692;48.956;9.200;2023-05-09T09:42:24;230.07;;;219.07;;
11269;SDS011;5692;48.956;9.200;2023-05-09T09:45:13;254.88;;;242.70;;
11269;SDS011;5692;48.956;9.200;2023-05-09T09:47:37;235.20;;;223.95;;
11269;SDS011;5692;48.956;9.200;2023-05-09T09:50:10;223.65;;;212.95;;
11269;SDS011;5692;48.956;9.200;2023-05-09T09:55:14;225.88;;;215.07;;
11269;SDS011;5692;48.956;9.200;2023-05-09T09:57:40;258.48;;;246.13;;
11269;SDS011;5692;48.956;9.200;2023-05-09T10:00:11;254.98;;;242.77;;
11269;SDS011;5692;48.956;9.200;2023-05-09T10:02:54;280.13;;;266.73;;
11269;SDS011;5692;48.956;9.200;2023-05-09T10:07:53;281.17;;;267.73;;
11269;SDS011;5692;48.956;9.200;2023-05-09T10:10:20;268.23;;;255.40;;
11269;SDS011;5692;48.956;9.200;2023-05-09T10:12:47;280.60;;;267.20;;
11269;SDS011;5692;48.956;9.200;2023-05-09T10:15:17;254.55;;;242.38;;
11269;SDS011;5692;48.956;9.200;2023-05-09T10:17:46;247.55;;;235.70;;
11269;SDS011;5692;48.956;9.200;2023-05-09T10:20:12;239.03;;;227.60;;
11269;SDS011;5692;48.956;9.200;2023-05-09T10:22:39;226.87;;;216.00;;
11269;SDS011;5692;48.956;9.200;2023-05-09T10:25:07;240.43;;;228.93;;
11269;SDS011;5692;48.956;9.200;2023-05-09T10:27:37;221.20;;;210.60;;
11269;SDS011;5692;48.956;9.200;2023-05-09T10:30:06;219.00;;;208.50;;
11269;SDS011;5692;48.956;9.200;2023-05-09T10:32:53;204.77;;;194.97;;
11269;SDS011;5692;48.956;9.200;2023-05-09T10:35:26;222.95;;;212.27;;
11269;SDS011;5692;48.956;9.200;2023-05-09T10:37:54;226.02;;;215.23;;
11269;SDS011;5692;48.956;9.200;2023-05-09T10:40:23;223.20;;;212.50;;
11269;SDS011;5692;48.956;9.200;2023-05-09T10:42:50;221.93;;;211.32;;
11269;SDS011;5692;48.956;9.200;2023-05-09T10:45:16;218.27;;;207.88;;
11269;SDS011;5692;48.956;9.200;2023-05-09T10:47:42;209.70;;;199.70;;
11269;SDS011;5692;48.956;9.200;2023-05-09T10:50:10;204.37;;;194.60;;
11269;SDS011;5692;48.956;9.200;2023-05-09T10:55:24;236.10;;;224.80;;
11269;SDS011;5692;48.956;9.200;2023-05-09T10:58:00;235.37;;;224.10;;
11269;SDS011;5692;48.956;9.200;2023-05-09T11:00:32;210.83;;;200.73;;
11269;SDS011;5692;48.956;9.200;2023-05-09T11:03:05;232.47;;;221.37;;
11269;SDS011;5692;48.956;9.200;2023-05-09T11:05:36;224.90;;;214.13;;
11269;SDS011;5692;48.956;9.200;2023-05-09T11:10:51;215.63;;;205.30;;
11269;SDS011;5692;48.956;9.200;2023-05-09T11:13:17;212.90;;;202.70;;
11269;SDS011;5692;48.956;9.200;2023-05-09T11:18:16;227.03;;;216.17;;
11269;SDS011;5692;48.956;9.200;2023-05-09T11:20:43;253.93;;;241.80;;
11269;SDS011;5692;48.956;9.200;2023-05-09T11:23:11;226.77;;;215.93;;
11269;SDS011;5692;48.956;9.200;2023-05-09T11:25:41;234.90;;;223.67;;
11269;SDS011;5692;48.956;9.200;2023-05-09T11:28:07;242.47;;;230.87;;
11269;SDS011;5692;48.956;9.200;2023-05-09T11:30:37;220.87;;;210.30;;
11269;SDS011;5692;48.956;9.200;2023-05-09T11:33:04;238.17;;;226.77;;
11269;SDS011;5692;48.956;9.200;2023-05-09T11:35:31;242.83;;;231.23;;
11269;SDS011;5692;48.956;9.200;2023-05-09T11:38:00;227.10;;;216.23;;
11269;SDS011;5692;48.956;9.200;2023-05-09T11:40:27;224.50;;;213.77;;
11269;SDS011;5692;48.956;9.200;2023-05-09T11:42:54;245.00;;;233.30;;
11269;SDS011;5692;48.956;9.200;2023-05-09T11:45:21;243.20;;;231.60;;
11269;SDS011;5692;48.956;9.200;2023-05-09T11:47:48;224.07;;;213.33;;
11269;SDS011;5692;48.956;9.200;2023-05-09T11:50:15;228.20;;;217.30;;
11269;SDS011;5692;48.956;9.200;2023-05-09T11:52:43;218.93;;;208.43;;
11269;SDS011;5692;48.956;9.200;2023-05-09T11:55:09;211.30;;;201.17;;
11269;SDS011;5692;48.956;9.200;2023-05-09T11:57:46;213.97;;;203.77;;
11269;SDS011;5692;48.956;9.200;2023-05-09T12:00:16;213.23;;;203.03;;
11269;SDS011;5692;48.956;9.200;2023-05-09T12:02:45;219.17;;;208.67;;
11269;SDS011;5692;48.956;9.200;2023-05-09T12:05:12;229.60;;;218.60;;
11269;SDS011;5692;48.956;9.200;2023-05-09T12:07:41;228.60;;;217.70;;
11269;SDS011;5692;48.956;9.200;2023-05-09T12:10:13;217.27;;;206.87;;
11269;SDS011;5692;48.956;9.200;2023-05-09T12:15:09;214.63;;;204.33;;
11269;SDS011;5692;48.956;9.200;2023-05-09T12:17:38;270.83;;;257.90;;
11269;SDS011;5692;48.956;9.200;2023-05-09T12:20:04;262.87;;;250.30;;
11269;SDS011;5692;48.956;9.200;2023-05-09T12:22:31;270.50;;;257.60;;
11269;SDS011;5692;48.956;9.200;2023-05-09T12:24:59;233.77;;;222.57;;
11269;SDS011;5692;48.956;9.200;2023-05-09T12:27:29;242.20;;;230.60;;
11269;SDS011;5692;48.956;9.200;2023-05-09T12:29:56;262.47;;;249.90;;
11269;SDS011;5692;48.956;9.200;2023-05-09T12:32:23;298.50;;;284.23;;
11269;SDS011;5692;48.956;9.200;2023-05-09T12:34:49;280.53;;;267.13;;
11269;SDS011;5692;48.956;9.200;2023-05-09T12:37:19;246.77;;;234.97;;
11269;SDS011;5692;48.956;9.200;2023-05-09T12:40:04;238.27;;;226.87;;
11269;SDS011;5692;48.956;9.200;2023-05-09T12:42:31;235.00;;;223.77;;
11269;SDS011;5692;48.956;9.200;2023-05-09T12:44:57;266.17;;;253.43;;
11269;SDS011;5692;48.956;9.200;2023-05-09T12:47:26;256.13;;;243.90;;
11269;SDS011;5692;48.956;9.200;2023-05-09T12:49:56;228.80;;;217.87;;
11269;SDS011;5692;48.956;9.200;2023-05-09T12:52:22;256.67;;;244.37;;
11269;SDS011;5692;48.956;9.200;2023-05-09T12:54:48;251.20;;;239.17;;
11269;SDS011;5692;48.956;9.200;2023-05-09T12:57:23;248.10;;;236.23;;
11269;SDS011;5692;48.956;9.200;2023-05-09T12:59:58;263.57;;;250.97;;
11269;SDS011;5692;48.956;9.200;2023-05-09T13:02:25;263.90;;;251.27;;
11269;SDS011;5692;48.956;9.200;2023-05-09T13:07:50;259.10;;;246.73;;
11269;SDS011;5692;48.956;9.200;2023-05-09T13:10:17;257.10;;;244.80;;
11269;SDS011;5692;48.956;9.200;2023-05-09T13:12:46;247.23;;;235.43;;
11269;SDS011;5692;48.956;9.200;2023-05-09T13:15:13;249.77;;;237.83;;
11269;SDS011;5692;48.956;9.200;2023-05-09T13:17:40;261.37;;;248.87;;
11269;SDS011;5692;48.956;9.200;2023-05-09T13:20:06;270.57;;;257.63;;
11269;SDS011;5692;48.956;9.200;2023-05-09T13:22:33;258.43;;;246.07;;
11269;SDS011;5692;48.956;9.200;2023-05-09T13:24:59;278.93;;;265.60;;
11269;SDS011;5692;48.956;9.200;2023-05-09T13:27:25;257.40;;;245.10;;
11269;SDS011;5692;48.956;9.200;2023-05-09T13:29:52;253.20;;;241.10;;
11269;SDS011;5692;48.956;9.200;2023-05-09T13:32:18;240.37;;;228.87;;
11269;SDS011;5692;48.956;9.200;2023-05-09T13:34:44;239.53;;;228.07;;
11269;SDS011;5692;48.956;9.200;2023-05-09T13:37:10;240.63;;;229.13;;
11269;SDS011;5692;48.956;9.200;2023-05-09T13:39:36;234.50;;;223.30;;
11269;SDS011;5692;48.956;9.200;2023-05-09T13:42:02;225.77;;;214.97;;
11269;SDS011;5692;48.956;9.200;2023-05-09T13:44:28;253.50;;;241.40;;
11269;SDS011;5692;48.956;9.200;2023-05-09T13:46:54;280.20;;;266.80;;
11269;SDS011;5692;48.956;9.200;2023-05-09T13:49:22;261.20;;;248.70;;
11269;SDS011;5692;48.956;9.200;2023-05-09T13:51:48;279.43;;;266.07;;
11269;SDS011;5692;48.956;9.200;2023-05-09T13:54:14;259.57;;;247.17;;
11269;SDS011;5692;48.956;9.200;2023-05-09T13:56:43;266.57;;;253.83;;
11269;SDS011;5692;48.956;9.200;2023-05-09T13:59:09;277.13;;;263.90;;
11269;SDS011;5692;48.956;9.200;2023-05-09T14:01:36;275.70;;;262.50;;
11269;SDS011;5692;48.956;9.200;2023-05-09T14:04:02;272.77;;;259.77;;
11269;SDS011;5692;48.956;9.200;2023-05-09T14:06:28;266.33;;;253.60;;
11269;SDS011;5692;48.956;9.200;2023-05-09T14:08:54;251.80;;;239.77;;
11269;SDS011;5692;48.956;9.200;2023-05-09T14:11:21;250.93;;;238.93;;
11269;SDS011;5692;48.956;9.200;2023-05-09T14:13:47;258.40;;;246.05;;
11269;SDS011;5692;48.956;9.200;2023-05-09T14:16:13;252.25;;;240.20;;
11269;SDS011;5692;48.956;9.200;2023-05-09T14:18:39;233.73;;;222.53;;
11269;SDS011;5692;48.956;9.200;2023-05-09T14:21:05;257.93;;;245.63;;
11269;SDS011;5692;48.956;9.200;2023-05-09T14:23:31;252.20;;;240.13;;
11269;SDS011;5692;48.956;9.200;2023-05-09T14:25:57;244.80;;;233.10;;
11269;SDS011;5692;48.956;9.200;2023-05-09T14:28:23;257.27;;;244.97;;
11269;SDS011;5692;48.956;9.200;2023-05-09T14:30:49;250.40;;;238.43;;
11269;SDS011;5692;48.956;9.200;2023-05-09T14:33:16;240.30;;;228.80;;
11269;SDS011;5692;48.956;9.200;2023-05-09T14:35:42;224.10;;;213.37;;
11269;SDS011;5692;48.956;9.200;2023-05-09T14:38:08;241.47;;;229.93;;
11269;SDS011;5692;48.956;9.200;2023-05-09T14:40:36;254.83;;;242.67;;
11269;SDS011;5692;48.956;9.200;2023-05-09T14:43:02;237.27;;;225.93;;